createdAt,value
2022-12-25T00:00:51.787Z,100688.41
2022-12-25T00:03:56.810Z,100673.94
2022-12-25T00:06:59.769Z,100701.16
2022-12-25T00:10:02.406Z,100685.72
2022-12-25T00:13:04.873Z,100722.44
2022-12-25T00:16:09.111Z,100710.41
2022-12-25T00:19:12.756Z,100747.00
2022-12-25T00:22:15.201Z,100753.78
2022-12-25T00:25:17.650Z,100754.63
2022-12-25T00:28:20.966Z,100720.50
2022-12-25T00:31:24.918Z,100746.19
2022-12-25T00:34:27.541Z,100748.75
2022-12-25T00:37:30.100Z,100721.44
2022-12-25T00:40:32.530Z,100745.22
2022-12-25T00:43:36.269Z,100728.03
2022-12-25T00:46:38.870Z,100735.75
2022-12-25T00:49:41.509Z,100715.34
2022-12-25T00:52:44.349Z,100762.34
2022-12-25T00:55:55.069Z,100785.41
2022-12-25T00:58:57.546Z,100787.09
2022-12-25T01:02:20.160Z,100782.09
2022-12-25T01:05:22.655Z,100776.84
2022-12-25T01:08:26.132Z,100777.69
2022-12-25T01:11:28.810Z,100807.59
2022-12-25T01:14:31.189Z,100806.81
2022-12-25T01:17:34.027Z,100770.13
2022-12-25T01:20:36.420Z,100800.97
2022-12-25T01:23:38.935Z,100793.25
2022-12-25T01:26:41.304Z,100778.75
2022-12-25T01:29:45.246Z,100784.75
2022-12-25T01:32:47.570Z,100790.66
2022-12-25T01:35:49.953Z,100772.63
2022-12-25T01:38:54.112Z,100777.78
2022-12-25T01:41:56.863Z,100745.31
2022-12-25T01:45:32.317Z,100785.41
2022-12-25T01:48:39.092Z,100781.06
2022-12-25T01:51:47.520Z,100788.03
2022-12-25T01:54:55.824Z,100780.41
2022-12-25T01:57:58.523Z,100776.13
2022-12-25T02:01:01.065Z,100787.19
2022-12-25T02:04:16.493Z,100785.56
2022-12-25T02:07:22.204Z,100819.66
2022-12-25T02:10:25.060Z,100841.88
2022-12-25T02:13:27.522Z,100839.19
2022-12-25T02:16:35.553Z,100795.56
2022-12-25T02:20:16.480Z,100823.75
2022-12-25T02:23:21.546Z,100818.63
2022-12-25T02:26:39.194Z,100819.50
2022-12-25T02:29:53.498Z,100813.41
2022-12-25T02:33:21.356Z,100802.28
2022-12-25T02:36:29.502Z,100758.59
2022-12-25T02:40:00.546Z,100822.56
2022-12-25T02:43:25.477Z,100819.13
2022-12-25T02:46:49.892Z,100807.84
2022-12-25T02:50:12.697Z,100846.25
2022-12-25T02:53:33.581Z,100836.81
2022-12-25T02:56:56.260Z,100793.28
2022-12-25T03:00:20.079Z,100853.06
2022-12-25T03:03:44.397Z,100818.03
2022-12-25T03:07:09.922Z,100867.66
2022-12-25T03:10:33.658Z,100872.78
2022-12-25T03:13:40.103Z,100839.38
2022-12-25T03:16:50.822Z,100877.66
2022-12-25T03:20:12.144Z,100860.41
2022-12-25T03:23:36.784Z,100852.75
2022-12-25T03:26:57.888Z,100864.75
2022-12-25T03:30:19.360Z,100847.78
2022-12-25T03:33:44.890Z,100843.31
2022-12-25T03:37:24.972Z,100895.41
2022-12-25T03:41:14.678Z,100902.31
2022-12-25T03:44:38.452Z,100896.44
2022-12-25T03:48:05.840Z,100882.72
2022-12-25T03:51:31.487Z,100855.28
2022-12-25T03:54:55.594Z,100855.19
2022-12-25T03:58:16.257Z,100881.72
2022-12-25T04:01:37.413Z,100880.06
2022-12-25T04:04:58.109Z,100874.09
2022-12-25T04:08:18.890Z,100885.53
2022-12-25T04:11:39.476Z,100898.16
2022-12-25T04:15:00.049Z,100868.97
2022-12-25T04:18:20.676Z,100854.50
2022-12-25T04:21:42.361Z,100882.13
2022-12-25T04:25:03.207Z,100888.88
2022-12-25T04:28:24.539Z,100908.63
2022-12-25T04:31:45.853Z,100878.38
2022-12-25T04:35:06.733Z,100927.91
2022-12-25T04:38:09.146Z,100917.63
2022-12-25T04:41:13.510Z,100892.03
2022-12-25T04:44:15.927Z,100880.81
2022-12-25T04:47:18.334Z,100877.41
2022-12-25T04:50:20.688Z,100920.84
2022-12-25T04:53:23.392Z,100907.31
2022-12-25T04:56:25.749Z,100883.25
2022-12-25T04:59:28.297Z,100878.91
2022-12-25T05:02:31.564Z,100879.72
2022-12-25T05:05:34.061Z,100918.88
2022-12-25T05:08:37.394Z,100892.31
2022-12-25T05:11:39.796Z,100913.84
2022-12-25T05:14:42.293Z,100927.84
2022-12-25T05:17:44.625Z,100942.75
2022-12-25T05:20:54.193Z,100923.31
2022-12-25T05:23:56.601Z,100908.78
2022-12-25T05:26:58.918Z,100934.31
2022-12-25T05:30:01.364Z,100941.09
2022-12-25T05:33:03.866Z,100941.84
2022-12-25T05:36:08.734Z,100940.94
2022-12-25T05:39:11.086Z,100947.72
2022-12-25T05:42:13.499Z,100912.59
2022-12-25T05:45:15.870Z,100952.06
2022-12-25T05:48:18.438Z,100956.16
2022-12-25T05:51:20.877Z,100948.41
2022-12-25T05:54:23.292Z,100951.66
2022-12-25T05:57:28.633Z,100925.84
2022-12-25T06:00:31.086Z,100947.25
2022-12-25T06:03:33.484Z,100937.75
2022-12-25T06:06:35.905Z,100945.25
2022-12-25T06:09:38.325Z,100981.09
2022-12-25T06:12:40.761Z,100980.31
2022-12-25T06:15:43.146Z,100986.06
2022-12-25T06:18:48.405Z,100957.06
2022-12-25T06:21:54.542Z,101016.13
2022-12-25T06:24:57.104Z,101004.81
2022-12-25T06:27:59.458Z,101015.19
2022-12-25T06:31:22.392Z,101010.84
2022-12-25T06:34:25.026Z,100978.13
2022-12-25T06:37:27.384Z,101008.91
2022-12-25T06:40:29.937Z,100989.19
2022-12-25T06:43:32.264Z,101027.00
2022-12-25T06:46:34.805Z,101037.53
2022-12-25T06:49:37.235Z,101027.44
2022-12-25T06:52:39.643Z,101044.44
2022-12-25T06:55:41.998Z,101026.19
2022-12-25T06:58:45.901Z,101048.50
2022-12-25T07:01:50.747Z,101059.66
2022-12-25T07:04:53.924Z,101020.19
2022-12-25T07:07:56.280Z,101026.28
2022-12-25T07:10:58.650Z,101052.25
2022-12-25T07:14:01.043Z,101005.09
2022-12-25T07:17:03.419Z,101083.03
2022-12-25T07:20:07.053Z,101088.97
2022-12-25T07:23:09.477Z,101096.63
2022-12-25T07:26:13.221Z,101064.19
2022-12-25T07:29:16.252Z,101091.63
2022-12-25T07:32:18.649Z,101119.88
2022-12-25T07:35:20.957Z,101080.41
2022-12-25T07:38:23.432Z,101104.94
2022-12-25T07:41:26.048Z,101079.81
2022-12-25T07:44:40.181Z,101078.38
2022-12-25T07:47:43.385Z,101101.22
2022-12-25T07:50:45.753Z,101129.50
2022-12-25T07:53:48.140Z,101110.47
2022-12-25T07:56:52.383Z,101133.78
2022-12-25T07:59:54.781Z,101108.53
2022-12-25T08:02:57.252Z,101099.09
2022-12-25T08:06:01.816Z,101129.13
2022-12-25T08:09:09.778Z,101145.78
2022-12-25T08:12:12.212Z,101107.59
2022-12-25T08:15:14.676Z,101121.75
2022-12-25T08:18:17.025Z,101160.06
2022-12-25T08:21:19.530Z,101165.09
2022-12-25T08:24:22.620Z,101179.75
2022-12-25T08:27:25.012Z,101163.91
2022-12-25T08:30:28.344Z,101159.03
2022-12-25T08:33:30.900Z,101167.22
2022-12-25T08:36:33.313Z,101193.72
2022-12-25T08:39:35.869Z,101189.78
2022-12-25T08:42:38.345Z,101187.81
2022-12-25T08:45:40.833Z,101199.19
2022-12-25T08:48:45.514Z,101178.31
2022-12-25T08:51:47.976Z,101182.53
2022-12-25T08:54:50.836Z,101165.19
2022-12-25T08:57:54.278Z,101176.28
2022-12-25T09:00:56.964Z,101180.47
2022-12-25T09:03:59.432Z,101188.53
2022-12-25T09:07:02.707Z,101176.88
2022-12-25T09:10:05.636Z,101199.56
2022-12-25T09:13:08.481Z,101187.53
2022-12-25T09:16:14.861Z,101200.63
2022-12-25T09:19:17.395Z,101198.94
2022-12-25T09:22:19.805Z,101166.31
2022-12-25T09:25:22.335Z,101191.78
2022-12-25T09:28:24.968Z,101153.81
2022-12-25T09:31:27.468Z,101191.53
2022-12-25T09:34:29.936Z,101174.88
2022-12-25T09:37:32.307Z,101181.16
2022-12-25T09:40:35.198Z,101173.06
2022-12-25T09:43:42.350Z,101175.00
2022-12-25T09:46:52.993Z,101191.88
2022-12-25T09:50:08.038Z,101178.34
2022-12-25T09:53:18.534Z,101216.00
2022-12-25T09:56:25.965Z,101207.56
2022-12-25T09:59:28.436Z,101209.19
2022-12-25T10:03:01.900Z,101213.50
2022-12-25T10:06:18.123Z,101216.88
2022-12-25T10:09:33.519Z,101196.59
2022-12-25T10:13:03.067Z,101227.59
2022-12-25T10:16:20.348Z,101229.75
2022-12-25T10:19:37.078Z,101228.34
2022-12-25T10:22:46.592Z,101223.44
2022-12-25T10:25:49.068Z,101208.31
2022-12-25T10:29:01.179Z,101225.13
2022-12-25T10:32:04.214Z,101235.09
2022-12-25T10:35:10.793Z,101232.09
2022-12-25T10:38:15.936Z,101203.19
2022-12-25T10:41:32.325Z,101194.56
2022-12-25T10:44:34.919Z,101202.47
2022-12-25T10:47:42.697Z,101212.72
2022-12-25T10:50:45.269Z,101203.88
2022-12-25T10:53:47.674Z,101200.06
2022-12-25T10:57:09.569Z,101212.44
2022-12-25T11:00:23.962Z,101197.00
2022-12-25T11:03:35.312Z,101196.75
2022-12-25T11:06:37.866Z,101201.59
2022-12-25T11:09:40.524Z,101199.16
2022-12-25T11:12:45.524Z,101193.41
2022-12-25T11:15:49.481Z,101210.59
2022-12-25T11:18:54.383Z,101194.84
2022-12-25T11:21:59.685Z,101231.84
2022-12-25T11:25:13.617Z,101210.88
2022-12-25T11:28:16.028Z,101219.81
2022-12-25T11:31:22.086Z,101202.47
2022-12-25T11:34:45.188Z,101205.38
2022-12-25T11:37:53.806Z,101187.56
2022-12-25T11:41:00.253Z,101182.53
2022-12-25T11:44:11.596Z,101178.50
2022-12-25T11:47:21.634Z,101182.94
2022-12-25T11:50:37.829Z,101217.25
2022-12-25T11:53:47.366Z,101217.00
2022-12-25T11:56:50.331Z,101220.53
2022-12-25T12:00:00.268Z,101194.63
2022-12-25T12:03:28.170Z,101214.44
2022-12-25T12:06:40.105Z,101214.41
2022-12-25T12:09:48.536Z,101221.06
2022-12-25T12:13:16.979Z,101221.06
2022-12-25T12:16:19.456Z,101215.66
2022-12-25T12:19:28.216Z,101211.22
2022-12-25T12:22:30.612Z,101225.97
2022-12-25T12:25:40.138Z,101215.28
2022-12-25T12:28:46.813Z,101237.75
2022-12-25T12:31:51.569Z,101229.22
2022-12-25T12:34:54.917Z,101226.91
2022-12-25T12:38:14.920Z,101214.19
2022-12-25T12:41:18.223Z,101219.09
2022-12-25T12:44:25.040Z,101211.66
2022-12-25T12:47:48.524Z,101201.31
2022-12-25T12:51:02.997Z,101213.16
2022-12-25T12:54:23.686Z,101188.84
2022-12-25T12:57:29.813Z,101203.97
2022-12-25T13:00:46.787Z,101192.31
2022-12-25T13:04:10.765Z,101206.19
2022-12-25T13:07:43.983Z,101217.19
2022-12-25T13:11:19.417Z,101220.50
2022-12-25T13:14:23.916Z,101218.03
2022-12-25T13:17:28.346Z,101229.44
2022-12-25T13:20:55.409Z,101233.38
2022-12-25T13:24:00.851Z,101217.22
2022-12-25T13:27:24.738Z,101239.84
2022-12-25T13:30:28.013Z,101238.72
2022-12-25T13:33:30.585Z,101223.72
2022-12-25T13:36:38.493Z,101239.56
2022-12-25T13:40:02.001Z,101196.06
2022-12-25T13:43:05.063Z,101189.34
2022-12-25T13:46:07.524Z,101220.88
2022-12-25T13:49:21.709Z,101221.88
2022-12-25T13:52:24.287Z,101212.63
2022-12-25T13:55:28.919Z,101210.16
2022-12-25T13:58:34.982Z,101218.13
2022-12-25T14:01:43.121Z,101214.06
2022-12-25T14:04:45.737Z,101219.19
2022-12-25T14:07:53.549Z,101234.41
2022-12-25T14:10:57.063Z,101225.31
2022-12-25T14:14:04.066Z,101243.13
2022-12-25T14:17:06.552Z,101233.88
2022-12-25T14:20:24.248Z,101247.97
2022-12-25T14:23:27.569Z,101212.44
2022-12-25T14:26:33.498Z,101251.13
2022-12-25T14:29:44.196Z,101256.47
2022-12-25T14:32:52.779Z,101270.31
2022-12-25T14:35:56.519Z,101256.63
2022-12-25T14:39:07.443Z,101278.00
2022-12-25T14:42:20.428Z,101256.63
2022-12-25T14:45:38.527Z,101276.28
2022-12-25T14:48:41.209Z,101289.97
2022-12-25T14:51:43.688Z,101254.03
2022-12-25T14:54:51.835Z,101282.28
2022-12-25T14:58:07.741Z,101299.34
2022-12-25T15:01:21.239Z,101278.72
2022-12-25T15:04:24.988Z,101310.25
2022-12-25T15:07:31.518Z,101305.94
2022-12-25T15:13:58.383Z,101262.22
2022-12-25T15:17:01.713Z,101333.22
2022-12-25T15:20:05.434Z,101327.34
2022-12-25T15:23:20.996Z,101321.31
2022-12-25T15:26:25.025Z,101322.28
2022-12-25T15:30:07.381Z,101337.59
2022-12-25T15:32:50.408Z,101293.94
2022-12-25T15:35:52.837Z,101292.97
2022-12-25T15:38:55.798Z,101313.56
2022-12-25T15:42:12.025Z,101299.81
2022-12-25T15:45:22.045Z,101339.19
2022-12-25T15:48:24.433Z,101319.50
2022-12-25T15:51:26.840Z,101330.50
2022-12-25T15:54:30.103Z,101313.28
2022-12-25T15:57:33.358Z,101295.41
2022-12-25T16:00:35.912Z,101266.34
2022-12-25T16:03:38.401Z,101262.13
2022-12-25T16:06:41.069Z,101248.41
2022-12-25T16:09:43.964Z,101283.53
2022-12-25T16:12:46.954Z,101321.97
2022-12-25T16:15:49.401Z,101339.16
2022-12-25T16:18:51.776Z,101325.41
2022-12-25T16:21:54.213Z,101332.31
2022-12-25T16:24:57.777Z,101333.22
2022-12-25T16:28:00.181Z,101327.22
2022-12-25T16:31:02.589Z,101326.34
2022-12-25T16:34:06.656Z,101332.41
2022-12-25T16:37:09.034Z,101317.03
2022-12-25T16:40:11.642Z,101328.16
2022-12-25T16:43:20.308Z,101301.56
2022-12-25T16:46:26.133Z,101290.31
2022-12-25T16:49:28.517Z,101313.34
2022-12-25T16:52:33.102Z,101322.75
2022-12-25T16:55:37.715Z,101324.47
2022-12-25T16:58:41.226Z,101316.72
2022-12-25T17:01:43.796Z,101318.47
2022-12-25T17:04:47.282Z,101290.13
2022-12-25T17:07:49.750Z,101326.09
2022-12-25T17:10:52.186Z,101290.13
2022-12-25T17:13:55.405Z,101325.25
2022-12-25T17:16:57.869Z,101290.97
2022-12-25T17:20:00.403Z,101286.59
2022-12-25T17:23:02.737Z,101315.84
2022-12-25T17:26:06.340Z,101332.81
2022-12-25T17:29:08.785Z,101320.03
2022-12-25T17:32:12.646Z,101293.53
2022-12-25T17:35:15.083Z,101315.78
2022-12-25T17:38:17.509Z,101312.25
2022-12-25T17:41:20.819Z,101317.41
2022-12-25T17:44:23.548Z,101305.25
2022-12-25T17:47:26.281Z,101246.94
2022-12-25T17:50:28.828Z,101319.91
2022-12-25T17:53:31.471Z,101292.31
2022-12-25T17:56:34.083Z,101323.19
2022-12-25T17:59:36.820Z,101275.25
2022-12-25T18:02:40.101Z,101335.28
2022-12-25T18:05:42.728Z,101327.59
2022-12-25T18:08:46.508Z,101291.75
2022-12-25T18:11:48.930Z,101287.47
2022-12-25T18:14:51.466Z,101308.91
2022-12-25T18:17:53.793Z,101327.81
2022-12-25T18:20:56.152Z,101332.88
2022-12-25T18:23:58.582Z,101340.59
2022-12-25T18:27:00.969Z,101324.34
2022-12-25T18:30:04.198Z,101341.47
2022-12-25T18:33:06.733Z,101296.03
2022-12-25T18:36:11.935Z,101304.63
2022-12-25T18:39:14.620Z,101304.69
2022-12-25T18:42:35.219Z,101308.09
2022-12-25T18:45:37.852Z,101294.34
2022-12-25T18:48:41.164Z,101310.69
2022-12-25T18:51:43.693Z,101294.50
2022-12-25T18:54:46.132Z,101286.78
2022-12-25T18:57:49.480Z,101245.69
2022-12-25T19:00:52.807Z,101241.41
2022-12-25T19:04:02.074Z,101255.94
2022-12-25T19:07:07.302Z,101289.31
2022-12-25T19:10:10.494Z,101266.09
2022-12-25T19:13:12.986Z,101284.94
2022-12-25T19:16:15.922Z,101287.56
2022-12-25T19:19:21.539Z,101282.38
2022-12-25T19:22:24.233Z,101295.16
2022-12-25T19:25:27.796Z,101306.34
2022-12-25T19:28:30.382Z,101268.63
2022-12-25T19:31:33.065Z,101281.47
2022-12-25T19:34:35.807Z,101301.31
2022-12-25T19:37:38.339Z,101309.03
2022-12-25T19:40:40.848Z,101309.94
2022-12-25T19:43:47.435Z,101283.41
2022-12-25T19:46:50.074Z,101299.66
2022-12-25T19:49:53.329Z,101295.31
2022-12-25T19:52:56.530Z,101258.47
2022-12-25T19:56:02.109Z,101302.13
2022-12-25T19:59:04.572Z,101289.25
2022-12-25T20:02:07.180Z,101261.81
2022-12-25T20:05:09.796Z,101274.75
2022-12-25T20:08:12.215Z,101232.81
2022-12-25T20:11:19.537Z,101267.06
2022-12-25T20:14:22.229Z,101253.41
2022-12-25T20:17:24.793Z,101250.00
2022-12-25T20:20:27.151Z,101236.25
2022-12-25T20:23:29.947Z,101243.97
2022-12-25T20:26:32.424Z,101247.38
2022-12-25T20:29:41.597Z,101267.13
2022-12-25T20:32:50.122Z,101272.25
2022-12-25T20:35:53.067Z,101296.22
2022-12-25T20:38:55.477Z,101280.72
2022-12-25T20:41:57.858Z,101309.88
2022-12-25T20:45:00.435Z,101307.44
2022-12-25T20:48:05.100Z,101275.78
2022-12-25T20:51:14.345Z,101305.72
2022-12-25T20:54:16.684Z,101320.41
2022-12-25T20:57:19.266Z,101286.19
2022-12-25T21:00:22.953Z,101283.66
2022-12-25T21:03:25.512Z,101305.03
2022-12-25T21:06:28.022Z,101270.81
2022-12-25T21:09:30.677Z,101246.00
2022-12-25T21:12:33.080Z,101297.50
2022-12-25T21:15:35.437Z,101258.06
2022-12-25T21:18:38.171Z,101258.94
2022-12-25T21:21:43.077Z,101286.34
2022-12-25T21:24:45.443Z,101300.00
2022-12-25T21:27:47.842Z,101272.66
2022-12-25T21:30:50.224Z,101263.22
2022-12-25T21:33:54.395Z,101283.72
2022-12-25T21:36:56.929Z,101269.06
2022-12-25T21:39:59.881Z,101247.75
2022-12-25T21:43:02.358Z,101258.91
2022-12-25T21:46:10.171Z,101276.03
2022-12-25T21:49:12.624Z,101275.28
2022-12-25T21:52:14.951Z,101253.06
2022-12-25T21:55:17.337Z,101246.16
2022-12-25T21:58:19.704Z,101285.59
2022-12-25T22:01:22.192Z,101294.03
2022-12-25T22:04:25.066Z,101254.59
2022-12-25T22:07:27.532Z,101281.28
2022-12-25T22:10:31.101Z,101299.31
2022-12-25T22:13:51.964Z,101259.91
2022-12-25T22:17:12.549Z,101268.50
2022-12-25T22:20:18.230Z,101236.88
2022-12-25T22:23:20.630Z,101242.06
2022-12-25T22:26:22.970Z,101225.78
2022-12-25T22:29:25.766Z,101255.69
2022-12-25T22:32:28.843Z,101256.59
2022-12-25T22:35:31.267Z,101240.31
2022-12-25T22:38:34.342Z,101267.69
2022-12-25T22:41:36.723Z,101266.00
2022-12-25T22:44:39.228Z,101266.88
2022-12-25T22:47:41.958Z,101277.13
2022-12-25T22:50:44.401Z,101269.44
2022-12-25T22:53:46.731Z,101229.16
2022-12-25T22:56:51.373Z,101246.34
2022-12-25T22:59:53.874Z,101212.94
2022-12-25T23:02:56.413Z,101211.22
2022-12-25T23:05:58.898Z,101239.47
2022-12-25T23:09:01.391Z,101213.78
2022-12-25T23:12:04.238Z,101236.06
2022-12-25T23:15:07.132Z,101231.78
2022-12-25T23:18:28.352Z,101232.63
2022-12-25T23:21:49.557Z,101199.28
2022-12-25T23:25:10.093Z,101228.34
2022-12-25T23:28:12.443Z,101206.13
2022-12-25T23:31:22.586Z,101215.53
2022-12-25T23:34:24.999Z,101200.13
2022-12-25T23:37:27.347Z,101216.38
2022-12-25T23:40:33.625Z,101172.75
2022-12-25T23:43:36.204Z,101165.03
2022-12-25T23:46:39.700Z,101185.56
2022-12-25T23:49:42.239Z,101196.69
2022-12-25T23:52:45.144Z,101184.72
2022-12-25T23:55:55.070Z,101228.38
2022-12-25T23:58:58.198Z,101183.88
